Time;durP1;ratioP1;P1;durP2;ratioP2;P2;SDS_P1;SDS_P2;PMS_P1;PMS_P2;Temp;Humidity;BMP_temperature;BMP_pressure;BME280_temperature;BME280_humidity;BME280_pressure;Samples;Min_cycle;Max_cycle;Signal;HPM_P1;HPM_P2
2021/11/17 02:26:48;;;;;;;31.23;16.03;;;;;;;12.50;61.61;101074.69;4971250;28;20189;-71
2021/11/17 02:30:01;;;;;;;34.60;17.30;;;;;;;12.67;62.98;101089.81;4954483;28;20174;-72
2021/11/17 02:32:38;;;;;;;34.27;17.33;;;;;;;13.06;62.30;101088.44;4930901;28;20290;-71
2021/11/17 02:35:24;;;;;;;38.00;18.33;;;;;;;13.78;60.77;101084.97;4931277;29;20199;-70
2021/11/17 02:38:18;;;;;;;33.17;17.27;;;;;;;13.44;60.86;101078.13;4939953;28;20186;-71
2021/11/17 02:41:02;;;;;;;37.67;18.70;;;;;;;13.85;60.43;101072.91;4972795;28;20170;-70
2021/11/17 02:43:37;;;;;;;35.73;17.87;;;;;;;13.38;60.46;101079.38;4942023;28;20572;-70
2021/11/17 02:46:41;;;;;;;34.43;18.30;;;;;;;13.56;60.16;101076.53;4956438;28;20173;-70
2021/11/17 02:49:22;;;;;;;36.27;17.80;;;;;;;13.05;61.52;101082.22;4956509;28;20189;-70
2021/11/17 02:52:02;;;;;;;35.10;16.97;;;;;;;14.49;59.33;101084.91;4972562;28;20162;-70
2021/11/17 02:55:05;;;;;;;35.30;17.63;;;;;;;14.50;59.20;101083.09;4972585;28;20198;-69
2021/11/17 02:57:44;;;;;;;40.43;18.37;;;;;;;14.45;59.46;101091.44;4938974;28;20194;-69
2021/11/17 03:00:31;;;;;;;34.67;18.90;;;;;;;14.44;59.14;101084.34;4972580;28;20619;-69
2021/11/17 03:03:18;;;;;;;35.33;19.67;;;;;;;14.93;58.73;101094.56;4974166;28;20198;-70
2021/11/17 03:05:58;;;;;;;32.73;17.47;;;;;;;14.22;59.57;101089.34;4957561;28;20162;-70
2021/11/17 03:08:36;;;;;;;41.13;20.10;;;;;;;14.78;59.30;101096.44;4972326;28;20562;-70
2021/11/17 03:11:26;;;;;;;37.57;18.23;;;;;;;14.42;59.46;101086.22;4956440;28;20205;-70
2021/11/17 03:14:21;;;;;;;37.93;18.63;;;;;;;14.62;59.30;101091.22;4972322;28;20209;-70
2021/11/17 03:17:14;;;;;;;35.53;17.90;;;;;;;13.84;60.87;101079.22;4958111;28;20181;-70
2021/11/17 03:20:08;;;;;;;40.77;18.13;;;;;;;14.42;60.42;101072.81;4972575;28;20219;-70
2021/11/17 03:22:45;;;;;;;41.90;20.73;;;;;;;14.15;60.49;101063.88;4973587;28;20201;-70
2021/11/17 03:25:22;;;;;;;42.10;19.77;;;;;;;14.64;59.65;101073.16;4956131;28;20190;-70
2021/11/17 03:28:06;;;;;;;39.47;19.47;;;;;;;14.69;59.48;101072.88;4972241;28;20170;-70
2021/11/17 03:30:53;;;;;;;41.47;20.40;;;;;;;14.94;59.30;101074.78;4956422;28;20175;-70
2021/11/17 03:33:50;;;;;;;39.60;20.73;;;;;;;15.18;58.92;101074.94;4971843;28;20647;-70
2021/11/17 03:36:34;;;;;;;44.73;22.30;;;;;;;14.80;59.64;101072.13;4972039;28;20177;-70
2021/11/17 03:39:27;;;;;;;45.53;21.53;;;;;;;14.51;59.73;101066.91;4972089;28;20205;-70
2021/11/17 03:42:31;;;;;;;49.00;23.50;;;;;;;14.74;59.65;101070.72;4972160;28;20676;-70
2021/11/17 03:45:15;;;;;;;57.70;24.13;;;;;;;13.99;61.40;101063.97;4971166;28;20213;-70
2021/11/17 03:47:59;;;;;;;53.00;23.23;;;;;;;14.37;60.92;101069.56;4973049;28;20624;-71
2021/11/17 03:50:30;;;;;;;53.90;23.03;;;;;;;14.33;60.86;101065.34;4957296;28;20165;-71
2021/11/17 03:53:24;;;;;;;50.83;24.07;;;;;;;14.22;61.07;101067.88;4971984;28;20543;-71
2021/11/17 03:55:57;;;;;;;55.20;24.47;;;;;;;13.45;62.49;101078.03;4972602;28;20174;-71
2021/11/17 03:58:44;;;;;;;53.90;22.87;;;;;;;14.07;61.41;101056.28;4973607;28;20154;-71
2021/11/17 04:01:47;;;;;;;53.57;24.13;;;;;;;13.79;61.87;101049.16;4972583;28;20169;-71
2021/11/17 04:04:42;;;;;;;54.57;23.53;;;;;;;14.12;61.19;101045.25;4973261;28;20205;-70
2021/11/17 04:07:29;;;;;;;54.33;23.53;;;;;;;13.72;62.47;101053.13;4971372;28;20248;-69
2021/11/17 04:10:17;;;;;;;54.90;23.23;;;;;;;13.66;62.19;101054.38;4971815;28;20170;-71
2021/11/17 04:13:22;;;;;;;56.53;21.23;;;;;;;14.21;61.29;101044.69;4970591;28;20186;-70
2021/11/17 04:16:16;;;;;;;41.67;19.00;;;;;;;13.65;62.08;101062.53;4952203;28;20190;-69
2021/11/17 04:18:48;;;;;;;38.50;18.80;;;;;;;13.00;63.05;101051.28;4955141;28;20190;-71
2021/11/17 04:21:42;;;;;;;38.63;17.73;;;;;;;13.14;63.33;101057.56;4972228;28;20636;-71
2021/11/17 04:24:13;;;;;;;38.20;17.77;;;;;;;12.66;63.10;101058.63;4956924;28;20202;-71
2021/11/17 04:26:57;;;;;;;31.07;15.03;;;;;;;12.45;63.56;101057.19;4971164;28;20181;-70
2021/11/17 04:29:56;;;;;;;32.40;15.23;;;;;;;12.76;63.61;101065.19;4955031;28;20166;-71
2021/11/17 04:32:40;;;;;;;27.93;14.97;;;;;;;12.56;64.19;101065.44;4940998;28;20181;-70
2021/11/17 04:35:14;;;;;;;30.20;13.63;;;;;;;12.41;64.45;101061.00;4971145;28;20259;-71
2021/11/17 04:38:10;;;;;;;27.67;14.47;;;;;;;12.27;64.21;101060.91;4971237;28;20208;-71
2021/11/17 04:41:21;;;;;;;31.10;14.30;;;;;;;12.58;64.34;101074.25;4971339;28;20260;-70
2021/11/17 04:44:15;;;;;;;29.53;14.47;;;;;;;12.57;63.80;101075.22;4969018;28;20248;-71
2021/11/17 04:46:40;;;;;;;26.23;13.83;;;;;;;12.16;64.33;101066.84;4964110;28;20236;-72
2021/11/17 04:49:24;;;;;;;30.03;14.73;;;;;;;12.59;64.55;101072.44;4973851;28;20251;-71
2021/11/17 04:52:07;;;;;;;28.53;15.73;;;;;;;12.57;63.96;101066.31;4972938;28;20172;-71
2021/11/17 04:54:48;;;;;;;26.23;15.53;;;;;;;11.94;65.25;101077.03;4961583;28;20197;-70
2021/11/17 04:57:32;;;;;;;29.40;15.10;;;;;;;12.99;63.38;101081.69;4976333;28;20184;-70
2021/11/17 05:00:12;;;;;;;26.00;14.50;;;;;;;11.85;65.48;101070.34;4974040;28;20181;-69
2021/11/17 05:03:01;;;;;;;28.43;14.53;;;;;;;12.52;63.78;101072.81;4972066;28;20199;-70
2021/11/17 05:05:54;;;;;;;22.30;13.07;;;;;;;12.29;63.00;101053.66;4971113;28;20197;-71
2021/11/17 05:08:38;;;;;;;24.37;12.37;;;;;;;12.28;63.70;101062.63;4955747;28;20173;-71
2021/11/17 05:11:22;;;;;;;18.87;10.63;;;;;;;11.79;64.16;101060.84;4954646;28;20548;-71
2021/11/17 05:14:03;;;;;;;20.33;11.23;;;;;;;12.28;63.07;101057.28;4954661;28;20213;-70
2021/11/17 05:16:49;;;;;;;15.87;9.57;;;;;;;12.09;63.59;101063.66;4972488;28;20253;-70
2021/11/17 05:19:17;;;;;;;16.97;10.57;;;;;;;11.80;64.07;101059.91;4970834;28;20237;-71
2021/11/17 05:21:42;;;;;;;19.80;10.03;;;;;;;11.75;63.75;101067.28;4970864;28;20205;-70
2021/11/17 05:24:13;;;;;;;16.40;10.33;;;;;;;11.85;63.61;101060.50;4971798;28;20262;-71
2021/11/17 05:26:54;;;;;;;15.37;9.53;;;;;;;12.07;62.29;101053.97;4971786;28;20199;-70
2021/11/17 05:29:28;;;;;;;14.90;9.50;;;;;;;12.01;62.71;101062.34;4971192;28;20176;-71
2021/11/17 05:32:15;;;;;;;15.27;9.70;;;;;;;12.21;61.80;101057.59;4971782;28;20159;-71
2021/11/17 05:34:59;;;;;;;17.73;10.93;;;;;;;12.32;60.85;101053.47;4939541;28;20211;-71
2021/11/17 05:37:56;;;;;;;17.87;11.13;;;;;;;13.01;60.19;101064.59;4970366;28;20254;-71
2021/11/17 05:40:46;;;;;;;17.73;10.83;;;;;;;12.76;60.47;101058.97;4972475;28;20163;-71
2021/11/17 05:43:49;;;;;;;16.40;10.07;;;;;;;12.72;60.06;101050.25;4971438;28;20207;-71
2021/11/17 05:46:32;;;;;;;13.03;8.23;;;;;;;12.96;59.71;101055.09;4971430;28;20531;-71
2021/11/17 05:49:01;;;;;;;12.40;6.93;;;;;;;12.44;58.92;101045.59;4971516;28;20668;-71
2021/11/17 05:51:35;;;;;;;15.13;7.37;;;;;;;12.60;59.00;101056.28;4970376;28;20643;-71
2021/11/17 05:54:12;;;;;;;10.10;6.73;;;;;;;12.46;59.26;101050.88;4971372;28;20204;-71
2021/11/17 05:56:50;;;;;;;10.97;7.20;;;;;;;12.19;58.63;101038.09;4971595;28;20158;-71
2021/11/17 05:59:31;;;;;;;12.37;7.90;;;;;;;12.83;58.37;101060.31;4970316;28;20637;-70
2021/11/17 06:02:15;;;;;;;12.50;7.67;;;;;;;13.84;56.20;101055.06;4954150;28;20225;-70
2021/11/17 06:04:40;;;;;;;14.40;7.07;;;;;;;12.68;58.22;101056.72;4970186;28;20281;-67
2021/11/17 06:07:05;;;;;;;12.93;8.03;;;;;;;12.71;58.03;101043.16;4970767;28;20174;-67
2021/11/17 06:09:30;;;;;;;12.83;7.73;;;;;;;13.15;57.26;101034.28;4970897;28;20177;-66
2021/11/17 06:11:58;;;;;;;13.10;8.00;;;;;;;13.52;56.15;101040.13;4974326;28;20257;-70
2021/11/17 06:14:27;;;;;;;12.13;7.90;;;;;;;13.40;56.12;101034.56;4973300;28;20244;-69
2021/11/17 06:16:55;;;;;;;15.87;8.07;;;;;;;13.22;57.16;101049.06;4974886;28;20178;-69
2021/11/17 06:19:23;;;;;;;10.87;6.87;;;;;;;13.26;56.51;101057.78;4973195;28;20206;-69
2021/11/17 06:21:49;;;;;;;10.87;7.77;;;;;;;13.46;56.62;101054.78;4973032;28;20221;-70
2021/11/17 06:24:17;;;;;;;10.70;7.27;;;;;;;13.12;57.25;101056.78;4972947;28;20186;-69
2021/11/17 06:26:44;;;;;;;10.60;7.40;;;;;;;13.55;56.51;101056.88;4956930;28;20182;-69
2021/11/17 06:29:19;;;;;;;13.47;8.17;;;;;;;13.97;56.06;101063.19;4956951;28;20178;-69
2021/11/17 06:31:46;;;;;;;13.60;8.67;;;;;;;13.10;57.35;101061.38;4972716;28;20177;-70
2021/11/17 06:34:31;;;;;;;12.40;7.70;;;;;;;13.52;56.77;101069.63;4973242;28;20239;-72
2021/11/17 06:36:57;;;;;;;16.40;10.50;;;;;;;13.57;56.32;101063.00;4956993;28;20612;-72
2021/11/17 06:39:23;;;;;;;13.67;7.47;;;;;;;13.30;56.50;101068.22;4956970;28;20210;-74
2021/11/17 06:41:49;;;;;;;14.17;8.37;;;;;;;13.52;56.56;101064.25;4957010;28;20206;-73
2021/11/17 06:44:14;;;;;;;14.17;8.33;;;;;;;13.70;56.05;101060.41;4973090;28;20701;-72
2021/11/17 06:46:40;;;;;;;18.73;12.00;;;;;;;14.01;55.59;101062.91;4973605;28;20181;-73
2021/11/17 06:49:05;;;;;;;18.97;10.00;;;;;;;13.74;56.22;101073.53;4958608;28;20670;-73
2021/11/17 06:51:30;;;;;;;15.73;9.23;;;;;;;14.15;55.95;101078.16;4977107;28;20170;-71
2021/11/17 06:53:56;;;;;;;17.07;9.00;;;;;;;13.70;56.65;101073.84;4972554;28;20250;-71
2021/11/17 06:56:22;;;;;;;16.93;9.93;;;;;;;13.79;56.59;101085.84;4973054;28;20570;-73
2021/11/17 06:58:47;;;;;;;16.80;9.87;;;;;;;13.93;56.76;101086.69;4956480;28;20560;-72
2021/11/17 07:01:13;;;;;;;11.93;7.73;;;;;;;12.82;59.02;101090.72;4956398;28;20210;-72
2021/11/17 07:03:39;;;;;;;18.90;7.43;;;;;;;12.55;59.63;101074.44;4972277;28;20209;-71
2021/11/17 07:06:04;;;;;;;11.80;6.83;;;;;;;12.11;60.89;101077.81;4956395;28;20182;-72
2021/11/17 07:08:30;;;;;;;10.57;5.50;;;;;;;11.47;62.03;101070.53;4973669;28;20244;-72
2021/11/17 07:10:55;;;;;;;8.30;5.80;;;;;;;11.85;61.53;101064.97;4973792;28;20178;-73
2021/11/17 07:13:20;;;;;;;8.37;5.47;;;;;;;11.56;61.97;101075.44;4956039;28;20178;-72
2021/11/17 07:15:46;;;;;;;7.70;5.23;;;;;;;11.11;63.43;101077.81;4974096;28;20197;-72
2021/11/17 07:18:11;;;;;;;10.03;5.00;;;;;;;11.46;62.55;101084.00;4956072;28;20207;-72
2021/11/17 07:20:37;;;;;;;9.03;4.73;;;;;;;11.72;62.25;101090.66;4971817;28;20229;-72
2021/11/17 07:23:04;;;;;;;8.10;5.33;;;;;;;12.10;61.62;101085.91;4971539;28;20193;-72
2021/11/17 07:25:29;;;;;;;10.17;7.00;;;;;;;12.03;61.43;101095.22;4972231;28;20654;-73
2021/11/17 07:27:56;;;;;;;9.27;5.80;;;;;;;11.93;61.80;101092.22;4956446;28;20182;-72
2021/11/17 07:30:25;;;;;;;11.40;6.67;;;;;;;12.22;61.06;101079.88;4972296;28;20177;-72
2021/11/17 07:32:51;;;;;;;9.70;6.60;;;;;;;12.09;61.25;101086.88;4956057;28;20181;-73
2021/11/17 07:35:19;;;;;;;12.90;6.60;;;;;;;12.84;60.80;101094.19;4972196;28;20202;-72
2021/11/17 07:37:44;;;;;;;14.20;7.40;;;;;;;12.10;60.64;101065.38;4976886;28;20338;-72
2021/11/17 07:40:11;;;;;;;12.60;6.90;;;;;;;12.24;62.04;101077.13;4956037;28;20752;-73
2021/11/17 07:42:37;;;;;;;13.50;7.30;;;;;;;12.82;60.21;101071.97;4973542;28;20208;-73
2021/11/17 07:45:04;;;;;;;9.57;6.63;;;;;;;12.36;61.20;101076.44;4976323;28;20284;-73
2021/11/17 07:47:29;;;;;;;13.63;7.03;;;;;;;12.37;60.22;101070.13;4958734;28;20178;-73
2021/11/17 07:49:55;;;;;;;12.30;6.77;;;;;;;12.47;60.70;101066.84;4974644;28;20188;-73
2021/11/17 07:52:20;;;;;;;11.77;6.30;;;;;;;12.45;60.68;101062.53;4975406;28;20578;-72
2021/11/17 07:54:45;;;;;;;12.83;6.60;;;;;;;12.42;60.26;101062.72;4959380;28;20258;-72
2021/11/17 07:57:11;;;;;;;14.77;7.87;;;;;;;12.13;60.97;101065.19;4976018;28;20181;-73
2021/11/17 07:59:37;;;;;;;11.07;5.93;;;;;;;11.93;60.86;101064.59;4956600;28;20193;-73
2021/11/17 08:02:08;;;;;;;10.07;5.83;;;;;;;12.23;61.80;101070.91;4982958;28;20196;-73
2021/11/17 08:04:35;;;;;;;9.77;6.13;;;;;;;12.31;61.12;101059.78;4986642;28;20198;-72
2021/11/17 08:07:03;;;;;;;11.13;6.73;;;;;;;12.53;61.08;101065.63;4957099;28;20197;-72
2021/11/17 08:09:30;;;;;;;10.60;6.17;;;;;;;12.31;60.21;101051.75;4973212;28;20182;-72
2021/11/17 08:11:55;;;;;;;11.17;5.93;;;;;;;12.28;60.72;101041.22;4972499;28;20217;-72
2021/11/17 08:14:20;;;;;;;8.40;5.57;;;;;;;12.78;59.53;101062.41;4986923;23;20228;-73
2021/11/17 08:16:45;;;;;;;10.87;5.50;;;;;;;12.09;60.62;101044.91;4991678;28;20229;-73
2021/11/17 08:19:11;;;;;;;9.50;5.67;;;;;;;11.71;60.64;101048.81;4991116;28;20509;-73
2021/11/17 08:21:36;;;;;;;9.03;5.17;;;;;;;12.07;59.81;101056.66;4991642;28;20185;-72
2021/11/17 08:24:01;;;;;;;9.17;5.30;;;;;;;12.07;59.63;101043.28;4970994;28;20207;-73
2021/11/17 08:26:27;;;;;;;11.83;5.47;;;;;;;12.73;58.27;101057.31;4970845;28;20184;-73
2021/11/17 08:28:53;;;;;;;7.47;4.57;;;;;;;12.11;59.05;101053.72;4972073;28;20778;-71
2021/11/17 08:31:18;;;;;;;6.57;3.73;;;;;;;12.49;58.08;101053.38;4972188;28;20178;-73
2021/11/17 08:33:44;;;;;;;7.20;4.30;;;;;;;12.01;58.16;101052.50;4971007;28;20189;-74
2021/11/17 08:36:10;;;;;;;6.07;3.97;;;;;;;12.19;58.81;101055.97;4970754;28;20186;-73
2021/11/17 08:38:36;;;;;;;11.63;4.67;;;;;;;12.87;57.26;101066.34;4970782;28;20205;-73
2021/11/17 08:41:05;;;;;;;7.27;3.80;;;;;;;12.66;57.89;101064.00;4970811;28;20643;-73
2021/11/17 08:43:31;;;;;;;8.10;4.60;;;;;;;12.79;57.64;101065.00;4971673;28;20201;-73
2021/11/17 08:45:58;;;;;;;7.33;4.43;;;;;;;13.03;57.11;101065.38;4970995;28;20262;-73
2021/11/17 08:48:26;;;;;;;6.23;3.87;;;;;;;13.42;56.66;101067.50;4970792;28;20212;-73
2021/11/17 08:50:55;;;;;;;7.47;4.37;;;;;;;13.20;57.34;101072.44;4954543;28;20177;-73
2021/11/17 08:53:21;;;;;;;7.07;4.53;;;;;;;13.14;57.43;101068.28;4970677;28;20176;-73
2021/11/17 08:55:47;;;;;;;10.37;4.30;;;;;;;12.54;58.42;101062.00;4970449;28;20657;-72
2021/11/17 08:58:13;;;;;;;6.90;4.03;;;;;;;12.50;58.15;101061.31;4970723;28;20187;-73
2021/11/17 09:00:39;;;;;;;7.90;3.97;;;;;;;12.37;58.63;101056.75;4970431;28;20186;-74
2021/11/17 09:03:07;;;;;;;7.70;4.30;;;;;;;12.43;58.73;101061.75;4970224;28;20202;-73
2021/11/17 09:05:37;;;;;;;6.73;3.90;;;;;;;12.82;57.80;101047.88;4971771;28;20218;-72
2021/11/17 09:08:03;;;;;;;7.40;4.87;;;;;;;12.56;58.07;101045.84;4971766;28;20185;-72
2021/11/17 09:10:31;;;;;;;11.33;6.23;;;;;;;12.61;58.14;101038.41;4970200;28;20313;-72
2021/11/17 09:12:57;;;;;;;7.93;4.93;;;;;;;13.02;57.59;101046.72;4970382;28;20599;-73
2021/11/17 09:15:27;;;;;;;8.10;4.67;;;;;;;13.74;55.89;101043.19;4970986;28;20236;-73
2021/11/17 09:17:52;;;;;;;8.67;5.03;;;;;;;12.99;56.74;101044.19;4970281;28;20253;-72
2021/11/17 09:20:20;;;;;;;8.13;4.60;;;;;;;12.78;57.20;101052.56;4971411;28;20193;-73
2021/11/17 09:22:46;;;;;;;8.50;3.97;;;;;;;12.35;57.20;101032.75;4970747;28;20205;-74
2021/11/17 09:25:11;;;;;;;6.50;3.97;;;;;;;12.67;56.76;101049.66;4970224;28;20208;-73
2021/11/17 09:27:39;;;;;;;5.10;3.23;;;;;;;12.77;56.98;101044.63;4971548;28;20189;-72
2021/11/17 09:30:06;;;;;;;5.97;3.40;;;;;;;13.00;56.37;101045.91;4969985;28;20638;-73
2021/11/17 09:32:32;;;;;;;5.03;3.10;;;;;;;13.23;55.79;101050.81;4971171;28;20178;-73
2021/11/17 09:35:05;;;;;;;3.73;2.57;;;;;;;13.59;55.22;101055.72;4969819;28;20209;-74
2021/11/17 09:37:30;;;;;;;5.30;3.00;;;;;;;13.57;54.66;101040.69;4969723;28;20197;-72
2021/11/17 09:39:56;;;;;;;6.07;3.20;;;;;;;12.86;56.22;101036.03;4969944;28;20178;-72
2021/11/17 09:42:22;;;;;;;4.27;2.80;;;;;;;13.04;55.66;101036.78;4971124;28;20221;-70
2021/11/17 09:44:48;;;;;;;5.30;2.97;;;;;;;13.50;54.59;101023.28;4972588;28;20594;-73
2021/11/17 09:47:16;;;;;;;4.03;2.47;;;;;;;12.96;56.33;101028.31;4974509;28;20280;-72
2021/11/17 09:49:47;;;;;;;5.37;2.93;;;;;;;13.09;56.45;101034.66;4957190;28;20250;-73
2021/11/17 09:52:21;;;;;;;4.47;2.57;;;;;;;12.53;56.27;101030.81;4973501;28;20176;-74
2021/11/17 09:54:56;;;;;;;3.60;2.40;;;;;;;12.77;56.67;101029.41;4973077;28;20266;-73
2021/11/17 09:57:26;;;;;;;3.93;2.30;;;;;;;12.17;57.33;101028.44;4973786;28;20188;-72
2021/11/17 09:59:57;;;;;;;4.70;2.87;;;;;;;12.64;57.37;101041.78;4956969;28;20178;-73
2021/11/17 10:02:47;;;;;;;7.70;2.97;;;;;;;12.69;56.61;101036.16;4973036;28;20194;-73
2021/11/17 10:05:24;;;;;;;3.67;2.53;;;;;;;13.17;56.18;101037.78;4973024;28;20690;-74
2021/11/17 10:13:18;;;;;;;4.60;3.23;;;;;;;14.08;53.81;101012.38;4974925;28;20219;-73
2021/11/17 10:15:46;;;;;;;4.73;2.70;;;;;;;12.63;56.30;101005.22;4973207;28;20217;-71
2021/11/17 10:18:18;;;;;;;6.67;4.07;;;;;;;13.06;55.76;101005.38;4974714;28;20579;-74
2021/11/17 10:20:50;;;;;;;5.57;3.00;;;;;;;12.62;57.36;101006.19;4975033;28;20192;-71
2021/11/17 10:23:52;;;;;;;5.73;2.87;;;;;;;13.14;57.01;101011.13;4974261;28;20244;-72
2021/11/17 10:26:18;;;;;;;5.97;3.10;;;;;;;12.82;57.09;101011.25;4974056;28;20177;-72
2021/11/17 10:28:49;;;;;;;6.03;3.23;;;;;;;12.63;58.06;101012.41;4957145;28;20651;-72
2021/11/17 10:31:22;;;;;;;6.67;3.60;;;;;;;12.97;57.58;101014.81;4973487;28;20257;-72
2021/11/17 10:34:12;;;;;;;8.67;4.00;;;;;;;13.30;57.24;101017.31;4972416;28;20193;-72
2021/11/17 10:36:53;;;;;;;7.30;3.80;;;;;;;13.44;57.03;101013.78;4967152;28;20198;-72
2021/11/17 10:39:45;;;;;;;5.03;3.40;;;;;;;13.06;57.63;101032.19;4972907;28;20192;-74
2021/11/17 10:42:18;;;;;;;5.30;3.67;;;;;;;13.06;57.92;101024.13;4974020;28;20195;-73
2021/11/17 10:45:13;;;;;;;7.97;3.83;;;;;;;12.70;59.10;101028.03;4973874;28;20203;-72
2021/11/17 10:47:48;;;;;;;8.57;4.20;;;;;;;12.39;59.46;101030.75;4972524;28;20301;-72
2021/11/17 10:50:29;;;;;;;8.30;4.07;;;;;;;12.84;58.88;101025.41;4957154;28;20254;-73
2021/11/17 10:53:08;;;;;;;9.10;4.73;;;;;;;12.58;59.25;101027.88;4971826;28;20756;-75
2021/11/17 10:55:37;;;;;;;9.33;4.77;;;;;;;12.93;58.26;101031.16;4972972;28;20200;-72
2021/11/17 10:58:08;;;;;;;7.87;4.47;;;;;;;12.68;59.25;101035.31;4971786;28;20186;-73
2021/11/17 11:00:46;;;;;;;6.83;4.43;;;;;;;12.23;59.92;101029.91;4972054;28;20174;-74
2021/11/17 11:03:14;;;;;;;8.70;4.60;;;;;;;11.79;61.00;101026.06;4971871;28;20679;-73
2021/11/17 11:05:56;;;;;;;8.00;4.33;;;;;;;12.47;59.97;101028.50;4972268;28;20193;-72
2021/11/17 11:08:27;;;;;;;9.97;5.33;;;;;;;11.60;60.57;101017.31;4972378;28;20168;-73
2021/11/17 11:11:00;;;;;;;10.60;5.77;;;;;;;12.41;59.75;101018.16;4956364;28;20171;-74
2021/11/17 11:13:31;;;;;;;9.20;5.70;;;;;;;11.67;61.08;101018.69;4972683;28;20189;-74
2021/11/17 11:16:00;;;;;;;8.37;5.00;;;;;;;11.48;61.78;101013.47;4973552;28;20205;-72
2021/11/17 11:18:39;;;;;;;9.17;5.30;;;;;;;12.50;60.18;101026.50;4972303;28;20181;-73
2021/11/17 11:21:06;;;;;;;9.73;5.30;;;;;;;12.03;60.44;101015.84;4973518;28;20292;-73
2021/11/17 11:24:08;;;;;;;12.80;7.63;;;;;;;12.25;60.18;101010.13;4973233;28;20248;-72
2021/11/17 11:26:59;;;;;;;11.73;5.83;;;;;;;12.95;58.93;100997.97;4972185;28;20173;-73
2021/11/17 11:29:33;;;;;;;9.23;6.10;;;;;;;13.05;57.92;100983.09;4972876;28;20205;-73
2021/11/17 11:32:11;;;;;;;8.93;6.00;;;;;;;13.21;57.67;100984.84;4972060;28;20168;-73
2021/11/17 11:35:03;;;;;;;10.07;6.57;;;;;;;13.45;57.38;100976.16;4971626;28;20697;-72
2021/11/17 11:37:31;;;;;;;9.80;6.53;;;;;;;13.95;56.39;100976.56;4973365;28;20249;-73
2021/11/17 11:40:11;;;;;;;10.17;5.87;;;;;;;12.77;58.78;100959.78;4972863;28;20171;-73
2021/11/17 11:42:59;;;;;;;9.30;6.00;;;;;;;14.13;56.27;100964.66;4971982;28;20194;-73
2021/11/17 11:45:25;;;;;;;9.27;5.67;;;;;;;13.98;56.01;100954.91;4972768;28;20605;-72
2021/11/17 11:48:05;;;;;;;10.33;6.20;;;;;;;14.47;54.66;100959.75;4972490;28;20265;-73
2021/11/17 11:50:31;;;;;;;12.07;6.33;;;;;;;13.81;55.80;100964.06;4971550;28;20185;-73
2021/11/17 11:53:10;;;;;;;8.40;6.07;;;;;;;13.19;57.58;100982.25;4971369;28;20654;-72
2021/11/17 11:55:54;;;;;;;9.50;5.80;;;;;;;13.41;57.50;100973.78;4955176;28;20198;-73
2021/11/17 11:58:23;;;;;;;11.30;6.90;;;;;;;13.53;56.89;100974.81;4972941;28;20181;-72
2021/11/17 12:01:09;;;;;;;13.03;7.20;;;;;;;13.86;57.11;100978.03;4971974;28;20186;-72
2021/11/17 12:03:42;;;;;;;10.00;6.73;;;;;;;13.61;57.79;100972.50;4972409;28;20360;-72
2021/11/17 12:06:31;;;;;;;10.50;6.43;;;;;;;12.94;58.38;100977.50;4971973;28;20186;-76
2021/11/17 12:09:22;;;;;;;12.07;6.47;;;;;;;13.28;57.69;100960.25;4971192;28;20159;-74
2021/11/17 12:11:57;;;;;;;9.93;6.67;;;;;;;13.58;57.28;100961.97;4971623;28;20174;-72
2021/11/17 12:14:45;;;;;;;9.07;5.30;;;;;;;13.01;57.15;100960.13;4970933;28;20617;-72
2021/11/17 12:17:10;;;;;;;11.63;7.47;;;;;;;13.17;57.52;100957.38;4955530;28;20220;-72
2021/11/17 12:19:45;;;;;;;11.90;6.23;;;;;;;12.41;58.76;100978.88;4972224;28;20174;-72
2021/11/17 12:22:10;;;;;;;12.43;6.47;;;;;;;12.29;59.50;100968.03;4971350;28;20190;-72
2021/11/17 12:24:42;;;;;;;13.40;6.77;;;;;;;13.12;58.01;100980.88;4971853;28;20613;-73
2021/11/17 12:27:15;;;;;;;12.83;7.13;;;;;;;12.48;59.30;100964.16;4971420;28;20177;-72
2021/11/17 12:29:49;;;;;;;11.23;6.73;;;;;;;12.77;59.21;100973.16;4954928;28;20181;-76
2021/11/17 12:32:26;;;;;;;11.83;6.87;;;;;;;12.61;59.54;100972.31;4972131;28;20170;-75
2021/11/17 12:35:16;;;;;;;14.30;8.00;;;;;;;13.50;57.47;100957.09;4971551;28;20210;-74
2021/11/17 12:38:00;;;;;;;8.97;5.80;;;;;;;13.13;58.60;100971.88;4972648;28;20250;-73
2021/11/17 12:40:45;;;;;;;11.97;6.60;;;;;;;13.70;57.05;100959.34;4970978;28;20631;-73
2021/11/17 12:43:20;;;;;;;12.63;6.77;;;;;;;13.33;57.82;100952.78;4972013;28;20315;-72
2021/11/17 12:46:03;;;;;;;9.50;6.47;;;;;;;14.01;56.23;100950.19;4970959;28;20296;-71
2021/11/17 12:48:33;;;;;;;14.73;6.93;;;;;;;14.20;56.19;100943.63;4970804;28;20258;-73
2021/11/17 12:51:13;;;;;;;10.17;6.50;;;;;;;14.18;56.12;100941.06;4971131;28;20174;-73
2021/11/17 12:54:01;;;;;;;15.97;6.77;;;;;;;14.74;54.84;100943.59;4970948;28;20531;-75
2021/11/17 12:56:31;;;;;;;9.53;5.60;;;;;;;13.96;56.24;100927.31;4970780;28;20166;-74
2021/11/17 12:59:05;;;;;;;11.87;6.60;;;;;;;14.43;55.95;100934.94;4971621;28;20616;-74
2021/11/17 13:01:38;;;;;;;10.53;6.10;;;;;;;13.87;56.37;100922.56;4970675;28;20178;-73
2021/11/17 13:04:11;;;;;;;8.83;5.53;;;;;;;13.90;56.43;100917.00;4970872;28;20213;-73
2021/11/17 13:06:39;;;;;;;9.67;5.40;;;;;;;14.12;55.93;100924.47;4972980;28;20166;-73
2021/11/17 13:09:20;;;;;;;9.57;5.77;;;;;;;14.67;54.79;100922.53;4971985;28;20245;-70
2021/11/17 13:12:10;;;;;;;11.23;6.20;;;;;;;14.68;55.00;100908.13;4972015;28;20193;-73
2021/11/17 13:14:42;;;;;;;8.87;5.37;;;;;;;13.87;56.64;100910.00;4954347;28;20222;-71
2021/11/17 13:17:18;;;;;;;9.23;5.17;;;;;;;13.98;56.77;100909.28;4971948;28;20232;-73
2021/11/17 13:19:51;;;;;;;9.13;6.00;;;;;;;13.87;57.34;100904.63;4971139;28;20162;-72
2021/11/17 13:22:25;;;;;;;9.80;6.00;;;;;;;14.05;56.54;100903.41;4970594;28;20198;-73
2021/11/17 13:24:53;;;;;;;9.17;5.57;;;;;;;14.38;56.16;100910.19;4971761;28;20563;-73
2021/11/17 13:27:23;;;;;;;8.23;5.47;;;;;;;14.10;56.70;100908.47;4970715;28;20178;-73
2021/11/17 13:30:14;;;;;;;9.97;6.03;;;;;;;14.65;55.97;100908.34;4970903;28;20225;-74
2021/11/17 13:32:42;;;;;;;15.37;8.47;;;;;;;14.01;56.53;100898.34;4971686;28;20575;-72
2021/11/17 13:35:32;;;;;;;10.13;5.70;;;;;;;13.58;58.39;100903.84;4971472;28;20198;-72
2021/11/17 13:38:20;;;;;;;10.57;6.13;;;;;;;14.16;57.05;100907.22;4970413;28;20174;-73
2021/11/17 13:40:48;;;;;;;9.03;6.17;;;;;;;14.48;56.13;100905.94;4971596;28;20176;-73
2021/11/17 13:43:13;;;;;;;10.37;6.47;;;;;;;13.52;57.68;100904.22;4971445;28;20190;-71
2021/11/17 13:45:40;;;;;;;10.13;5.93;;;;;;;14.01;56.88;100926.03;4970316;28;20202;-74
2021/11/17 13:48:06;;;;;;;10.80;6.20;;;;;;;14.21;56.93;100924.75;4970372;28;20174;-74
2021/11/17 13:50:35;;;;;;;10.40;6.23;;;;;;;14.86;55.48;100924.78;4970454;28;20181;-72
2021/11/17 13:53:03;;;;;;;10.50;6.40;;;;;;;14.06;57.05;100933.78;4971275;28;20571;-73
2021/11/17 13:55:30;;;;;;;10.60;6.10;;;;;;;14.13;57.16;100928.91;4970293;28;20205;-75
2021/11/17 13:57:56;;;;;;;10.20;5.83;;;;;;;13.90;56.82;100909.81;4970170;28;20178;-75
2021/11/17 14:00:24;;;;;;;8.47;5.60;;;;;;;14.00;57.58;100915.41;4971216;28;20555;-75
2021/11/17 14:02:49;;;;;;;12.13;5.70;;;;;;;13.93;57.56;100919.47;4972730;28;20559;-74
2021/11/17 14:05:18;;;;;;;10.83;5.90;;;;;;;14.01;57.83;100918.00;4972063;28;20282;-74
2021/11/17 14:07:43;;;;;;;10.23;6.67;;;;;;;14.09;57.73;100912.13;4971213;28;20179;-74
2021/11/17 14:10:10;;;;;;;9.90;6.20;;;;;;;13.73;58.65;100916.25;4971282;28;20178;-73
2021/11/17 14:12:35;;;;;;;9.43;6.03;;;;;;;13.43;59.98;100919.09;4969959;28;20345;-74
2021/11/17 14:15:03;;;;;;;11.97;6.83;;;;;;;14.16;58.90;100917.97;4995174;23;20222;-68
2021/11/17 14:17:28;;;;;;;9.50;6.53;;;;;;;13.08;61.08;100912.38;4969936;28;20178;-68
2021/11/17 14:19:53;;;;;;;13.93;7.80;;;;;;;13.28;60.32;100898.59;4969824;28;20209;-69
2021/11/17 14:22:19;;;;;;;11.90;6.70;;;;;;;12.71;62.42;100911.94;4969464;28;20552;-69
2021/11/17 14:24:44;;;;;;;13.10;7.60;;;;;;;13.68;60.22;100913.00;4957127;28;20272;-69
2021/11/17 14:27:11;;;;;;;12.53;7.40;;;;;;;13.44;60.61;100899.38;4950422;29;20215;-68